sensor_id;sensor_type;location;lat;lon;timestamp;P1;durP1;ratioP1;P2;durP2;ratioP2
16385;SDS011;8302;51.154;4.456;2023-08-30T00:01:03;0.90;;;0.90;;
16385;SDS011;8302;51.154;4.456;2023-08-30T00:03:32;4.65;;;0.85;;
16385;SDS011;8302;51.154;4.456;2023-08-30T00:06:02;1.25;;;1.13;;
16385;SDS011;8302;51.154;4.456;2023-08-30T00:08:32;0.43;;;0.40;;
16385;SDS011;8302;51.154;4.456;2023-08-30T00:11:00;0.85;;;0.70;;
16385;SDS011;8302;51.154;4.456;2023-08-30T00:13:30;0.77;;;0.75;;
16385;SDS011;8302;51.154;4.456;2023-08-30T00:15:58;1.25;;;0.68;;
16385;SDS011;8302;51.154;4.456;2023-08-30T00:18:30;0.52;;;0.52;;
16385;SDS011;8302;51.154;4.456;2023-08-30T00:20:58;0.95;;;0.68;;
16385;SDS011;8302;51.154;4.456;2023-08-30T00:23:25;1.13;;;0.57;;
16385;SDS011;8302;51.154;4.456;2023-08-30T00:25:53;0.63;;;0.52;;
16385;SDS011;8302;51.154;4.456;2023-08-30T00:28:21;0.85;;;0.60;;
16385;SDS011;8302;51.154;4.456;2023-08-30T00:30:52;1.85;;;0.73;;
16385;SDS011;8302;51.154;4.456;2023-08-30T00:33:20;0.82;;;0.75;;
16385;SDS011;8302;51.154;4.456;2023-08-30T00:35:56;0.80;;;0.80;;
16385;SDS011;8302;51.154;4.456;2023-08-30T00:38:25;0.65;;;0.57;;
16385;SDS011;8302;51.154;4.456;2023-08-30T00:40:56;1.65;;;1.13;;
16385;SDS011;8302;51.154;4.456;2023-08-30T00:43:24;1.45;;;0.95;;
16385;SDS011;8302;51.154;4.456;2023-08-30T00:45:53;1.25;;;0.77;;
16385;SDS011;8302;51.154;4.456;2023-08-30T00:48:21;0.60;;;0.60;;
16385;SDS011;8302;51.154;4.456;2023-08-30T00:50:50;1.55;;;1.00;;
16385;SDS011;8302;51.154;4.456;2023-08-30T00:53:23;1.38;;;0.98;;
16385;SDS011;8302;51.154;4.456;2023-08-30T00:55:52;2.00;;;1.10;;
16385;SDS011;8302;51.154;4.456;2023-08-30T00:58:20;0.50;;;0.50;;
16385;SDS011;8302;51.154;4.456;2023-08-30T01:00:49;0.50;;;0.45;;
16385;SDS011;8302;51.154;4.456;2023-08-30T01:03:18;1.48;;;1.38;;
16385;SDS011;8302;51.154;4.456;2023-08-30T01:05:48;1.80;;;0.80;;
16385;SDS011;8302;51.154;4.456;2023-08-30T01:08:16;0.95;;;0.75;;
16385;SDS011;8302;51.154;4.456;2023-08-30T01:10:53;0.55;;;0.55;;
16385;SDS011;8302;51.154;4.456;2023-08-30T01:13:24;3.40;;;0.80;;
16385;SDS011;8302;51.154;4.456;2023-08-30T01:15:57;1.85;;;0.70;;
16385;SDS011;8302;51.154;4.456;2023-08-30T01:18:25;1.75;;;1.48;;
16385;SDS011;8302;51.154;4.456;2023-08-30T01:20:54;3.35;;;1.08;;
16385;SDS011;8302;51.154;4.456;2023-08-30T01:23:27;1.33;;;0.93;;
16385;SDS011;8302;51.154;4.456;2023-08-30T01:26:02;3.10;;;1.30;;
16385;SDS011;8302;51.154;4.456;2023-08-30T01:28:33;1.52;;;0.93;;
16385;SDS011;8302;51.154;4.456;2023-08-30T01:31:04;1.15;;;0.82;;
16385;SDS011;8302;51.154;4.456;2023-08-30T01:33:34;0.55;;;0.55;;
16385;SDS011;8302;51.154;4.456;2023-08-30T01:36:04;0.77;;;0.73;;
16385;SDS011;8302;51.154;4.456;2023-08-30T01:38:32;2.55;;;0.98;;
16385;SDS011;8302;51.154;4.456;2023-08-30T01:41:01;1.25;;;1.05;;
16385;SDS011;8302;51.154;4.456;2023-08-30T01:43:30;1.17;;;1.08;;
16385;SDS011;8302;51.154;4.456;2023-08-30T01:46:04;3.80;;;1.17;;
16385;SDS011;8302;51.154;4.456;2023-08-30T01:48:33;0.82;;;0.75;;
16385;SDS011;8302;51.154;4.456;2023-08-30T01:51:02;2.60;;;1.33;;
16385;SDS011;8302;51.154;4.456;2023-08-30T01:53:30;1.67;;;1.58;;
16385;SDS011;8302;51.154;4.456;2023-08-30T01:55:58;2.00;;;0.93;;
16385;SDS011;8302;51.154;4.456;2023-08-30T01:58:26;1.30;;;0.88;;
16385;SDS011;8302;51.154;4.456;2023-08-30T02:00:54;2.17;;;1.30;;
16385;SDS011;8302;51.154;4.456;2023-08-30T02:03:25;1.60;;;0.73;;
16385;SDS011;8302;51.154;4.456;2023-08-30T02:05:57;3.45;;;1.00;;
16385;SDS011;8302;51.154;4.456;2023-08-30T02:08:30;1.52;;;0.90;;
16385;SDS011;8302;51.154;4.456;2023-08-30T02:11:04;1.25;;;0.80;;
16385;SDS011;8302;51.154;4.456;2023-08-30T02:13:34;1.38;;;0.93;;
16385;SDS011;8302;51.154;4.456;2023-08-30T02:16:03;0.50;;;0.50;;
16385;SDS011;8302;51.154;4.456;2023-08-30T02:18:33;0.80;;;0.80;;
16385;SDS011;8302;51.154;4.456;2023-08-30T02:21:05;3.55;;;1.35;;
16385;SDS011;8302;51.154;4.456;2023-08-30T02:23:33;1.05;;;0.95;;
16385;SDS011;8302;51.154;4.456;2023-08-30T02:26:02;2.58;;;0.70;;
16385;SDS011;8302;51.154;4.456;2023-08-30T02:28:31;1.52;;;0.70;;
16385;SDS011;8302;51.154;4.456;2023-08-30T02:30:58;0.75;;;0.75;;
16385;SDS011;8302;51.154;4.456;2023-08-30T02:33:26;1.55;;;1.23;;
16385;SDS011;8302;51.154;4.456;2023-08-30T02:35:57;1.60;;;0.93;;
16385;SDS011;8302;51.154;4.456;2023-08-30T02:38:25;2.00;;;0.63;;
16385;SDS011;8302;51.154;4.456;2023-08-30T02:40:54;1.60;;;1.10;;
16385;SDS011;8302;51.154;4.456;2023-08-30T02:43:22;2.28;;;0.82;;
16385;SDS011;8302;51.154;4.456;2023-08-30T02:45:51;1.48;;;0.75;;
16385;SDS011;8302;51.154;4.456;2023-08-30T02:48:20;1.27;;;0.85;;
16385;SDS011;8302;51.154;4.456;2023-08-30T02:50:49;2.50;;;1.42;;
16385;SDS011;8302;51.154;4.456;2023-08-30T02:53:18;1.98;;;1.38;;
16385;SDS011;8302;51.154;4.456;2023-08-30T02:55:46;2.38;;;1.08;;
16385;SDS011;8302;51.154;4.456;2023-08-30T02:58:17;1.00;;;0.73;;
16385;SDS011;8302;51.154;4.456;2023-08-30T03:00:45;2.72;;;1.02;;
16385;SDS011;8302;51.154;4.456;2023-08-30T03:03:13;1.05;;;0.95;;
16385;SDS011;8302;51.154;4.456;2023-08-30T03:05:42;1.65;;;1.25;;
16385;SDS011;8302;51.154;4.456;2023-08-30T03:08:11;0.98;;;0.93;;
16385;SDS011;8302;51.154;4.456;2023-08-30T03:10:41;1.73;;;0.68;;
16385;SDS011;8302;51.154;4.456;2023-08-30T03:13:11;1.42;;;0.82;;
16385;SDS011;8302;51.154;4.456;2023-08-30T03:15:39;0.75;;;0.75;;
16385;SDS011;8302;51.154;4.456;2023-08-30T03:18:09;1.88;;;1.00;;
16385;SDS011;8302;51.154;4.456;2023-08-30T03:20:38;2.08;;;0.90;;
16385;SDS011;8302;51.154;4.456;2023-08-30T03:23:06;0.52;;;0.52;;
16385;SDS011;8302;51.154;4.456;2023-08-30T03:25:35;1.70;;;0.93;;
16385;SDS011;8302;51.154;4.456;2023-08-30T03:28:06;0.93;;;0.80;;
16385;SDS011;8302;51.154;4.456;2023-08-30T03:30:35;1.83;;;1.00;;
16385;SDS011;8302;51.154;4.456;2023-08-30T03:33:04;1.77;;;0.93;;
16385;SDS011;8302;51.154;4.456;2023-08-30T03:35:33;1.90;;;0.82;;
16385;SDS011;8302;51.154;4.456;2023-08-30T03:38:01;2.03;;;1.30;;
16385;SDS011;8302;51.154;4.456;2023-08-30T03:40:29;1.95;;;0.90;;
16385;SDS011;8302;51.154;4.456;2023-08-30T03:42:58;2.55;;;1.00;;
16385;SDS011;8302;51.154;4.456;2023-08-30T03:45:27;1.25;;;1.15;;
16385;SDS011;8302;51.154;4.456;2023-08-30T03:47:57;2.15;;;1.30;;
16385;SDS011;8302;51.154;4.456;2023-08-30T03:50:26;1.30;;;0.77;;
16385;SDS011;8302;51.154;4.456;2023-08-30T03:52:55;3.13;;;1.42;;
16385;SDS011;8302;51.154;4.456;2023-08-30T03:55:23;1.27;;;0.82;;
16385;SDS011;8302;51.154;4.456;2023-08-30T03:57:52;2.65;;;1.27;;
16385;SDS011;8302;51.154;4.456;2023-08-30T04:00:20;1.70;;;0.93;;
16385;SDS011;8302;51.154;4.456;2023-08-30T04:02:51;1.45;;;1.08;;
16385;SDS011;8302;51.154;4.456;2023-08-30T04:05:19;1.55;;;1.30;;
16385;SDS011;8302;51.154;4.456;2023-08-30T04:07:48;0.85;;;0.75;;
16385;SDS011;8302;51.154;4.456;2023-08-30T04:10:16;2.00;;;1.35;;
16385;SDS011;8302;51.154;4.456;2023-08-30T04:12:45;1.83;;;1.10;;
16385;SDS011;8302;51.154;4.456;2023-08-30T04:15:14;1.30;;;1.15;;
16385;SDS011;8302;51.154;4.456;2023-08-30T04:17:42;1.10;;;0.85;;
16385;SDS011;8302;51.154;4.456;2023-08-30T04:20:12;1.58;;;1.13;;
16385;SDS011;8302;51.154;4.456;2023-08-30T04:22:41;1.50;;;1.10;;
16385;SDS011;8302;51.154;4.456;2023-08-30T04:25:09;1.23;;;1.10;;
16385;SDS011;8302;51.154;4.456;2023-08-30T04:27:39;2.60;;;1.17;;
16385;SDS011;8302;51.154;4.456;2023-08-30T04:30:09;2.95;;;1.25;;
16385;SDS011;8302;51.154;4.456;2023-08-30T04:32:38;1.02;;;0.88;;
16385;SDS011;8302;51.154;4.456;2023-08-30T04:35:08;1.42;;;1.00;;
16385;SDS011;8302;51.154;4.456;2023-08-30T04:37:39;1.73;;;1.33;;
16385;SDS011;8302;51.154;4.456;2023-08-30T04:40:08;1.85;;;1.20;;
16385;SDS011;8302;51.154;4.456;2023-08-30T04:42:37;1.38;;;1.00;;
16385;SDS011;8302;51.154;4.456;2023-08-30T04:45:06;2.88;;;1.27;;
16385;SDS011;8302;51.154;4.456;2023-08-30T04:47:36;1.90;;;1.05;;
16385;SDS011;8302;51.154;4.456;2023-08-30T04:50:05;1.08;;;0.80;;
16385;SDS011;8302;51.154;4.456;2023-08-30T04:52:34;1.35;;;1.13;;
16385;SDS011;8302;51.154;4.456;2023-08-30T04:55:04;1.83;;;1.23;;
16385;SDS011;8302;51.154;4.456;2023-08-30T04:57:33;1.50;;;1.15;;
16385;SDS011;8302;51.154;4.456;2023-08-30T05:00:03;3.15;;;1.50;;
16385;SDS011;8302;51.154;4.456;2023-08-30T05:02:33;1.92;;;1.13;;
16385;SDS011;8302;51.154;4.456;2023-08-30T05:05:06;2.05;;;1.25;;
16385;SDS011;8302;51.154;4.456;2023-08-30T05:07:34;1.13;;;0.98;;
16385;SDS011;8302;51.154;4.456;2023-08-30T05:10:06;2.42;;;1.30;;
16385;SDS011;8302;51.154;4.456;2023-08-30T05:12:34;1.67;;;1.17;;
16385;SDS011;8302;51.154;4.456;2023-08-30T05:15:03;2.45;;;1.10;;
16385;SDS011;8302;51.154;4.456;2023-08-30T05:17:31;1.48;;;1.08;;
16385;SDS011;8302;51.154;4.456;2023-08-30T05:20:00;3.42;;;1.58;;
16385;SDS011;8302;51.154;4.456;2023-08-30T05:22:29;1.30;;;0.65;;
16385;SDS011;8302;51.154;4.456;2023-08-30T05:24:57;2.53;;;1.50;;
16385;SDS011;8302;51.154;4.456;2023-08-30T05:27:27;1.40;;;1.17;;
16385;SDS011;8302;51.154;4.456;2023-08-30T05:29:55;2.10;;;1.25;;
16385;SDS011;8302;51.154;4.456;2023-08-30T05:32:24;2.63;;;0.80;;
16385;SDS011;8302;51.154;4.456;2023-08-30T05:35:12;2.33;;;1.20;;
16385;SDS011;8302;51.154;4.456;2023-08-30T05:38:09;3.72;;;1.30;;
16385;SDS011;8302;51.154;4.456;2023-08-30T05:40:45;2.30;;;1.30;;
16385;SDS011;8302;51.154;4.456;2023-08-30T05:43:15;2.08;;;1.10;;
16385;SDS011;8302;51.154;4.456;2023-08-30T05:45:43;1.80;;;1.27;;
16385;SDS011;8302;51.154;4.456;2023-08-30T05:48:11;1.13;;;1.00;;
16385;SDS011;8302;51.154;4.456;2023-08-30T05:50:39;2.15;;;1.65;;
16385;SDS011;8302;51.154;4.456;2023-08-30T05:53:07;1.45;;;1.08;;
16385;SDS011;8302;51.154;4.456;2023-08-30T05:55:36;2.55;;;1.15;;
16385;SDS011;8302;51.154;4.456;2023-08-30T05:58:05;1.58;;;1.17;;
16385;SDS011;8302;51.154;4.456;2023-08-30T06:00:35;3.33;;;1.58;;
16385;SDS011;8302;51.154;4.456;2023-08-30T06:03:04;1.15;;;1.05;;
16385;SDS011;8302;51.154;4.456;2023-08-30T06:05:33;3.97;;;1.65;;
16385;SDS011;8302;51.154;4.456;2023-08-30T06:08:02;2.30;;;1.83;;
16385;SDS011;8302;51.154;4.456;2023-08-30T06:10:30;4.13;;;2.55;;
16385;SDS011;8302;51.154;4.456;2023-08-30T06:12:58;3.78;;;2.30;;
16385;SDS011;8302;51.154;4.456;2023-08-30T06:15:27;3.05;;;1.70;;
16385;SDS011;8302;51.154;4.456;2023-08-30T06:17:56;4.38;;;2.03;;
16385;SDS011;8302;51.154;4.456;2023-08-30T06:20:25;4.22;;;2.60;;
16385;SDS011;8302;51.154;4.456;2023-08-30T06:22:53;9.48;;;3.30;;
16385;SDS011;8302;51.154;4.456;2023-08-30T06:25:22;10.43;;;4.70;;
16385;SDS011;8302;51.154;4.456;2023-08-30T06:27:55;15.65;;;4.47;;
16385;SDS011;8302;51.154;4.456;2023-08-30T06:30:24;18.80;;;5.95;;
16385;SDS011;8302;51.154;4.456;2023-08-30T06:32:52;17.33;;;6.85;;
16385;SDS011;8302;51.154;4.456;2023-08-30T06:35:24;21.02;;;7.38;;
16385;SDS011;8302;51.154;4.456;2023-08-30T06:37:52;16.98;;;6.72;;
16385;SDS011;8302;51.154;4.456;2023-08-30T06:40:20;26.38;;;7.65;;
16385;SDS011;8302;51.154;4.456;2023-08-30T06:42:49;20.23;;;7.30;;
16385;SDS011;8302;51.154;4.456;2023-08-30T06:45:17;22.55;;;8.30;;
16385;SDS011;8302;51.154;4.456;2023-08-30T06:47:45;33.20;;;9.38;;
16385;SDS011;8302;51.154;4.456;2023-08-30T06:50:15;21.85;;;8.20;;
16385;SDS011;8302;51.154;4.456;2023-08-30T06:52:46;19.73;;;8.13;;
16385;SDS011;8302;51.154;4.456;2023-08-30T06:55:15;26.65;;;8.68;;
16385;SDS011;8302;51.154;4.456;2023-08-30T06:57:47;25.10;;;8.82;;
16385;SDS011;8302;51.154;4.456;2023-08-30T07:00:18;22.08;;;8.68;;
16385;SDS011;8302;51.154;4.456;2023-08-30T07:02:46;26.42;;;8.77;;
16385;SDS011;8302;51.154;4.456;2023-08-30T07:05:14;24.83;;;8.95;;
16385;SDS011;8302;51.154;4.456;2023-08-30T07:07:42;26.15;;;9.35;;
16385;SDS011;8302;51.154;4.456;2023-08-30T07:10:12;25.95;;;9.65;;
16385;SDS011;8302;51.154;4.456;2023-08-30T07:12:40;27.75;;;9.23;;
16385;SDS011;8302;51.154;4.456;2023-08-30T07:15:08;22.33;;;8.40;;
16385;SDS011;8302;51.154;4.456;2023-08-30T07:17:37;23.42;;;8.85;;
16385;SDS011;8302;51.154;4.456;2023-08-30T07:20:20;25.23;;;8.82;;
16385;SDS011;8302;51.154;4.456;2023-08-30T07:22:49;20.52;;;7.53;;
16385;SDS011;8302;51.154;4.456;2023-08-30T07:25:18;24.40;;;9.38;;
16385;SDS011;8302;51.154;4.456;2023-08-30T07:27:47;19.08;;;7.20;;
16385;SDS011;8302;51.154;4.456;2023-08-30T07:30:15;21.48;;;7.53;;
16385;SDS011;8302;51.154;4.456;2023-08-30T07:32:44;20.25;;;7.57;;
16385;SDS011;8302;51.154;4.456;2023-08-30T07:35:12;14.95;;;6.88;;
16385;SDS011;8302;51.154;4.456;2023-08-30T07:37:41;19.00;;;6.32;;
16385;SDS011;8302;51.154;4.456;2023-08-30T07:40:09;13.63;;;5.85;;
16385;SDS011;8302;51.154;4.456;2023-08-30T07:42:39;15.15;;;6.65;;
16385;SDS011;8302;51.154;4.456;2023-08-30T07:45:08;16.65;;;6.63;;
16385;SDS011;8302;51.154;4.456;2023-08-30T07:47:37;13.73;;;5.97;;
16385;SDS011;8302;51.154;4.456;2023-08-30T07:50:06;12.10;;;5.70;;
16385;SDS011;8302;51.154;4.456;2023-08-30T07:52:34;14.43;;;5.13;;
16385;SDS011;8302;51.154;4.456;2023-08-30T07:55:11;13.88;;;5.78;;
16385;SDS011;8302;51.154;4.456;2023-08-30T07:57:41;14.55;;;5.53;;
16385;SDS011;8302;51.154;4.456;2023-08-30T08:00:10;10.43;;;5.03;;
16385;SDS011;8302;51.154;4.456;2023-08-30T08:02:39;10.38;;;4.95;;
16385;SDS011;8302;51.154;4.456;2023-08-30T08:05:07;10.90;;;5.35;;
16385;SDS011;8302;51.154;4.456;2023-08-30T08:07:38;9.20;;;3.85;;
16385;SDS011;8302;51.154;4.456;2023-08-30T08:10:06;8.63;;;3.42;;
16385;SDS011;8302;51.154;4.456;2023-08-30T08:12:37;11.80;;;3.83;;
16385;SDS011;8302;51.154;4.456;2023-08-30T08:15:08;7.20;;;3.10;;
16385;SDS011;8302;51.154;4.456;2023-08-30T08:17:37;7.00;;;2.92;;
16385;SDS011;8302;51.154;4.456;2023-08-30T08:20:06;8.00;;;2.72;;
16385;SDS011;8302;51.154;4.456;2023-08-30T08:22:34;10.02;;;2.88;;
16385;SDS011;8302;51.154;4.456;2023-08-30T08:25:03;5.43;;;2.42;;
16385;SDS011;8302;51.154;4.456;2023-08-30T08:27:31;5.90;;;2.47;;
16385;SDS011;8302;51.154;4.456;2023-08-30T08:29:59;7.47;;;2.08;;
16385;SDS011;8302;51.154;4.456;2023-08-30T08:32:29;2.92;;;1.77;;
16385;SDS011;8302;51.154;4.456;2023-08-30T08:34:58;6.43;;;2.22;;
16385;SDS011;8302;51.154;4.456;2023-08-30T08:37:27;2.88;;;1.65;;
16385;SDS011;8302;51.154;4.456;2023-08-30T08:39:56;3.45;;;1.48;;
16385;SDS011;8302;51.154;4.456;2023-08-30T08:42:24;4.07;;;1.33;;
16385;SDS011;8302;51.154;4.456;2023-08-30T08:44:53;5.13;;;1.95;;
16385;SDS011;8302;51.154;4.456;2023-08-30T08:47:23;3.20;;;1.85;;
16385;SDS011;8302;51.154;4.456;2023-08-30T08:49:52;4.68;;;1.60;;
16385;SDS011;8302;51.154;4.456;2023-08-30T08:52:21;5.93;;;1.48;;
16385;SDS011;8302;51.154;4.456;2023-08-30T08:54:59;3.80;;;1.85;;
16385;SDS011;8302;51.154;4.456;2023-08-30T08:57:28;3.03;;;1.63;;
16385;SDS011;8302;51.154;4.456;2023-08-30T08:59:58;2.03;;;1.10;;
16385;SDS011;8302;51.154;4.456;2023-08-30T09:02:26;1.35;;;1.25;;
16385;SDS011;8302;51.154;4.456;2023-08-30T09:04:57;0.80;;;0.68;;
16385;SDS011;8302;51.154;4.456;2023-08-30T09:07:26;3.67;;;1.63;;
16385;SDS011;8302;51.154;4.456;2023-08-30T09:09:55;2.90;;;1.48;;
16385;SDS011;8302;51.154;4.456;2023-08-30T09:12:24;1.45;;;1.13;;
16385;SDS011;8302;51.154;4.456;2023-08-30T09:14:52;2.88;;;1.33;;
16385;SDS011;8302;51.154;4.456;2023-08-30T09:17:22;2.28;;;0.88;;
16385;SDS011;8302;51.154;4.456;2023-08-30T09:19:52;3.20;;;1.65;;
16385;SDS011;8302;51.154;4.456;2023-08-30T09:22:22;3.92;;;1.65;;
16385;SDS011;8302;51.154;4.456;2023-08-30T09:24:51;2.85;;;1.13;;
16385;SDS011;8302;51.154;4.456;2023-08-30T09:27:21;1.73;;;1.20;;
16385;SDS011;8302;51.154;4.456;2023-08-30T09:30:03;2.50;;;1.27;;
16385;SDS011;8302;51.154;4.456;2023-08-30T09:32:32;7.13;;;0.90;;
16385;SDS011;8302;51.154;4.456;2023-08-30T09:35:06;2.72;;;1.13;;
16385;SDS011;8302;51.154;4.456;2023-08-30T09:37:36;5.88;;;1.88;;
16385;SDS011;8302;51.154;4.456;2023-08-30T09:40:05;1.98;;;1.00;;
16385;SDS011;8302;51.154;4.456;2023-08-30T09:42:33;2.35;;;1.15;;
16385;SDS011;8302;51.154;4.456;2023-08-30T09:45:02;0.82;;;0.80;;
16385;SDS011;8302;51.154;4.456;2023-08-30T09:47:32;2.15;;;1.27;;
16385;SDS011;8302;51.154;4.456;2023-08-30T09:50:00;3.47;;;0.93;;
16385;SDS011;8302;51.154;4.456;2023-08-30T09:52:30;0.45;;;0.45;;
16385;SDS011;8302;51.154;4.456;2023-08-30T09:55:01;3.28;;;1.05;;
16385;SDS011;8302;51.154;4.456;2023-08-30T09:57:30;0.88;;;0.88;;
16385;SDS011;8302;51.154;4.456;2023-08-30T10:00:00;3.22;;;0.88;;
16385;SDS011;8302;51.154;4.456;2023-08-30T10:02:31;2.95;;;1.35;;
16385;SDS011;8302;51.154;4.456;2023-08-30T10:05:02;1.10;;;0.88;;
16385;SDS011;8302;51.154;4.456;2023-08-30T10:07:31;2.42;;;1.50;;
16385;SDS011;8302;51.154;4.456;2023-08-30T10:10:03;1.42;;;1.10;;
16385;SDS011;8302;51.154;4.456;2023-08-30T10:12:36;2.35;;;1.25;;
16385;SDS011;8302;51.154;4.456;2023-08-30T10:15:05;1.48;;;0.80;;
16385;SDS011;8302;51.154;4.456;2023-08-30T10:17:33;3.55;;;1.50;;
16385;SDS011;8302;51.154;4.456;2023-08-30T10:20:03;1.60;;;1.02;;
16385;SDS011;8302;51.154;4.456;2023-08-30T10:22:32;3.35;;;0.82;;
16385;SDS011;8302;51.154;4.456;2023-08-30T10:25:07;2.10;;;1.65;;
16385;SDS011;8302;51.154;4.456;2023-08-30T10:27:44;1.88;;;0.95;;
16385;SDS011;8302;51.154;4.456;2023-08-30T10:30:13;2.95;;;1.15;;
16385;SDS011;8302;51.154;4.456;2023-08-30T10:32:43;1.50;;;1.13;;
16385;SDS011;8302;51.154;4.456;2023-08-30T10:35:11;2.80;;;1.10;;
16385;SDS011;8302;51.154;4.456;2023-08-30T10:37:40;1.02;;;0.82;;
16385;SDS011;8302;51.154;4.456;2023-08-30T10:40:10;1.17;;;1.08;;
16385;SDS011;8302;51.154;4.456;2023-08-30T10:42:39;1.48;;;0.93;;
16385;SDS011;8302;51.154;4.456;2023-08-30T10:45:09;0.98;;;0.93;;
16385;SDS011;8302;51.154;4.456;2023-08-30T10:47:40;3.88;;;0.65;;
16385;SDS011;8302;51.154;4.456;2023-08-30T10:50:09;2.13;;;1.10;;
16385;SDS011;8302;51.154;4.456;2023-08-30T10:52:39;0.60;;;0.60;;
16385;SDS011;8302;51.154;4.456;2023-08-30T10:55:10;2.42;;;0.98;;
16385;SDS011;8302;51.154;4.456;2023-08-30T10:57:41;0.70;;;0.70;;
16385;SDS011;8302;51.154;4.456;2023-08-30T11:00:10;1.75;;;0.98;;
16385;SDS011;8302;51.154;4.456;2023-08-30T11:02:43;1.30;;;0.60;;
16385;SDS011;8302;51.154;4.456;2023-08-30T11:05:12;1.25;;;0.63;;
16385;SDS011;8302;51.154;4.456;2023-08-30T11:07:40;1.35;;;0.90;;
16385;SDS011;8302;51.154;4.456;2023-08-30T11:10:11;1.08;;;0.85;;
16385;SDS011;8302;51.154;4.456;2023-08-30T11:12:40;1.20;;;1.05;;
16385;SDS011;8302;51.154;4.456;2023-08-30T11:15:12;3.50;;;1.05;;
16385;SDS011;8302;51.154;4.456;2023-08-30T11:17:42;0.73;;;0.73;;
16385;SDS011;8302;51.154;4.456;2023-08-30T11:20:11;1.38;;;1.25;;
16385;SDS011;8302;51.154;4.456;2023-08-30T11:22:41;3.08;;;1.17;;
16385;SDS011;8302;51.154;4.456;2023-08-30T11:25:11;1.85;;;0.98;;
16385;SDS011;8302;51.154;4.456;2023-08-30T11:27:40;1.77;;;0.50;;
16385;SDS011;8302;51.154;4.456;2023-08-30T11:30:09;1.85;;;1.05;;
16385;SDS011;8302;51.154;4.456;2023-08-30T11:32:40;1.02;;;0.90;;
16385;SDS011;8302;51.154;4.456;2023-08-30T11:35:09;0.98;;;0.77;;
16385;SDS011;8302;51.154;4.456;2023-08-30T11:37:39;2.67;;;1.23;;
16385;SDS011;8302;51.154;4.456;2023-08-30T11:40:08;2.20;;;0.90;;
16385;SDS011;8302;51.154;4.456;2023-08-30T11:42:40;1.75;;;0.80;;
16385;SDS011;8302;51.154;4.456;2023-08-30T11:45:09;1.48;;;1.13;;
16385;SDS011;8302;51.154;4.456;2023-08-30T11:47:39;1.27;;;1.08;;
16385;SDS011;8302;51.154;4.456;2023-08-30T11:50:10;1.88;;;0.95;;
16385;SDS011;8302;51.154;4.456;2023-08-30T11:52:39;1.85;;;1.38;;
16385;SDS011;8302;51.154;4.456;2023-08-30T11:55:07;0.55;;;0.55;;
16385;SDS011;8302;51.154;4.456;2023-08-30T11:57:40;2.60;;;0.75;;
16385;SDS011;8302;51.154;4.456;2023-08-30T12:00:11;2.03;;;1.00;;
16385;SDS011;8302;51.154;4.456;2023-08-30T12:02:40;1.45;;;0.80;;
16385;SDS011;8302;51.154;4.456;2023-08-30T12:05:10;0.60;;;0.57;;
16385;SDS011;8302;51.154;4.456;2023-08-30T12:07:39;0.95;;;0.80;;
16385;SDS011;8302;51.154;4.456;2023-08-30T12:10:07;2.28;;;0.82;;
16385;SDS011;8302;51.154;4.456;2023-08-30T12:12:36;0.98;;;0.90;;
16385;SDS011;8302;51.154;4.456;2023-08-30T12:15:09;0.75;;;0.65;;
16385;SDS011;8302;51.154;4.456;2023-08-30T12:17:37;0.85;;;0.75;;
16385;SDS011;8302;51.154;4.456;2023-08-30T12:20:14;0.70;;;0.70;;
16385;SDS011;8302;51.154;4.456;2023-08-30T12:22:42;1.73;;;0.45;;
16385;SDS011;8302;51.154;4.456;2023-08-30T12:25:17;0.85;;;0.55;;
16385;SDS011;8302;51.154;4.456;2023-08-30T12:27:45;1.30;;;0.70;;
16385;SDS011;8302;51.154;4.456;2023-08-30T12:30:15;2.60;;;0.80;;
16385;SDS011;8302;51.154;4.456;2023-08-30T12:32:44;1.45;;;0.90;;
16385;SDS011;8302;51.154;4.456;2023-08-30T12:35:13;2.63;;;0.70;;
16385;SDS011;8302;51.154;4.456;2023-08-30T12:37:44;1.50;;;0.88;;
16385;SDS011;8302;51.154;4.456;2023-08-30T12:40:12;0.93;;;0.55;;
16385;SDS011;8302;51.154;4.456;2023-08-30T12:42:40;2.42;;;1.05;;
16385;SDS011;8302;51.154;4.456;2023-08-30T12:45:08;0.80;;;0.70;;
16385;SDS011;8302;51.154;4.456;2023-08-30T12:47:38;1.58;;;0.93;;
16385;SDS011;8302;51.154;4.456;2023-08-30T12:50:07;3.75;;;0.90;;
16385;SDS011;8302;51.154;4.456;2023-08-30T12:52:36;1.88;;;1.15;;
16385;SDS011;8302;51.154;4.456;2023-08-30T12:55:04;0.98;;;0.60;;
16385;SDS011;8302;51.154;4.456;2023-08-30T12:57:32;0.65;;;0.57;;
16385;SDS011;8302;51.154;4.456;2023-08-30T13:00:02;0.70;;;0.50;;
16385;SDS011;8302;51.154;4.456;2023-08-30T13:02:31;1.60;;;0.88;;
16385;SDS011;8302;51.154;4.456;2023-08-30T13:05:00;0.60;;;0.60;;
16385;SDS011;8302;51.154;4.456;2023-08-30T13:07:28;4.63;;;0.80;;
16385;SDS011;8302;51.154;4.456;2023-08-30T13:09:59;1.83;;;0.90;;
16385;SDS011;8302;51.154;4.456;2023-08-30T13:12:27;2.83;;;0.57;;
16385;SDS011;8302;51.154;4.456;2023-08-30T13:14:59;2.15;;;0.88;;
16385;SDS011;8302;51.154;4.456;2023-08-30T13:17:27;0.20;;;0.20;;
16385;SDS011;8302;51.154;4.456;2023-08-30T13:19:56;0.57;;;0.57;;
16385;SDS011;8302;51.154;4.456;2023-08-30T13:22:26;2.05;;;0.85;;
16385;SDS011;8302;51.154;4.456;2023-08-30T13:24:55;1.30;;;0.68;;
16385;SDS011;8302;51.154;4.456;2023-08-30T13:27:24;0.68;;;0.60;;
16385;SDS011;8302;51.154;4.456;2023-08-30T13:29:52;0.75;;;0.40;;
16385;SDS011;8302;51.154;4.456;2023-08-30T13:32:20;1.02;;;0.63;;
16385;SDS011;8302;51.154;4.456;2023-08-30T13:34:49;0.28;;;0.28;;
16385;SDS011;8302;51.154;4.456;2023-08-30T13:37:17;0.93;;;0.57;;
16385;SDS011;8302;51.154;4.456;2023-08-30T13:39:47;1.05;;;0.80;;
16385;SDS011;8302;51.154;4.456;2023-08-30T13:42:15;13.90;;;1.40;;
16385;SDS011;8302;51.154;4.456;2023-08-30T13:44:43;0.43;;;0.40;;
16385;SDS011;8302;51.154;4.456;2023-08-30T13:47:12;0.47;;;0.47;;
16385;SDS011;8302;51.154;4.456;2023-08-30T13:49:42;0.40;;;0.40;;
16385;SDS011;8302;51.154;4.456;2023-08-30T13:52:10;0.20;;;0.20;;
16385;SDS011;8302;51.154;4.456;2023-08-30T13:54:38;5.28;;;1.20;;
16385;SDS011;8302;51.154;4.456;2023-08-30T13:57:09;1.17;;;0.65;;
16385;SDS011;8302;51.154;4.456;2023-08-30T13:59:37;1.63;;;0.82;;
16385;SDS011;8302;51.154;4.456;2023-08-30T14:02:05;1.27;;;0.70;;
16385;SDS011;8302;51.154;4.456;2023-08-30T14:04:34;1.23;;;0.73;;
16385;SDS011;8302;51.154;4.456;2023-08-30T14:07:04;1.10;;;0.52;;
16385;SDS011;8302;51.154;4.456;2023-08-30T14:09:33;2.28;;;0.85;;
16385;SDS011;8302;51.154;4.456;2023-08-30T14:12:02;0.93;;;0.40;;
16385;SDS011;8302;51.154;4.456;2023-08-30T14:14:34;0.57;;;0.57;;
16385;SDS011;8302;51.154;4.456;2023-08-30T14:17:02;2.63;;;0.70;;
16385;SDS011;8302;51.154;4.456;2023-08-30T14:19:31;1.52;;;0.40;;
16385;SDS011;8302;51.154;4.456;2023-08-30T14:22:02;0.68;;;0.60;;
16385;SDS011;8302;51.154;4.456;2023-08-30T14:24:32;0.85;;;0.40;;
16385;SDS011;8302;51.154;4.456;2023-08-30T14:27:12;0.40;;;0.40;;
16385;SDS011;8302;51.154;4.456;2023-08-30T14:29:42;0.52;;;0.40;;
16385;SDS011;8302;51.154;4.456;2023-08-30T14:32:11;0.70;;;0.57;;
16385;SDS011;8302;51.154;4.456;2023-08-30T14:34:39;1.45;;;1.00;;
16385;SDS011;8302;51.154;4.456;2023-08-30T14:37:07;0.75;;;0.65;;
16385;SDS011;8302;51.154;4.456;2023-08-30T14:39:38;0.80;;;0.60;;
16385;SDS011;8302;51.154;4.456;2023-08-30T14:42:06;0.65;;;0.57;;
16385;SDS011;8302;51.154;4.456;2023-08-30T14:44:34;0.82;;;0.60;;
16385;SDS011;8302;51.154;4.456;2023-08-30T14:47:04;1.10;;;0.90;;
16385;SDS011;8302;51.154;4.456;2023-08-30T14:49:33;1.45;;;0.45;;
16385;SDS011;8302;51.154;4.456;2023-08-30T14:52:01;1.95;;;1.15;;
16385;SDS011;8302;51.154;4.456;2023-08-30T14:54:30;1.00;;;0.80;;
16385;SDS011;8302;51.154;4.456;2023-08-30T14:56:58;0.77;;;0.70;;
16385;SDS011;8302;51.154;4.456;2023-08-30T14:59:26;1.88;;;0.77;;
16385;SDS011;8302;51.154;4.456;2023-08-30T15:01:55;2.80;;;0.93;;
16385;SDS011;8302;51.154;4.456;2023-08-30T15:04:26;1.45;;;0.75;;
16385;SDS011;8302;51.154;4.456;2023-08-30T15:06:54;1.42;;;0.90;;
16385;SDS011;8302;51.154;4.456;2023-08-30T15:09:23;0.75;;;0.70;;
16385;SDS011;8302;51.154;4.456;2023-08-30T15:11:51;0.98;;;0.68;;
16385;SDS011;8302;51.154;4.456;2023-08-30T15:14:19;0.85;;;0.73;;